sensor_id;sensor_type;location;lat;lon;timestamp;pressure;altitude;pressure_sealevel;temperature;humidity
64294;BME280;50636;45.596;5.258;2022-10-30T00:00:54;99148.09;;;18.93;58.13
64294;BME280;50636;45.596;5.258;2022-10-30T00:03:20;99136.81;;;19.25;57.22
64294;BME280;50636;45.596;5.258;2022-10-30T00:05:47;99143.09;;;19.36;56.51
64294;BME280;50636;45.596;5.258;2022-10-30T00:08:16;99141.09;;;19.26;56.87
64294;BME280;50636;45.596;5.258;2022-10-30T00:10:43;99139.16;;;19.22;57.01
64294;BME280;50636;45.596;5.258;2022-10-30T00:13:09;99140.09;;;18.93;56.76
64294;BME280;50636;45.596;5.258;2022-10-30T00:15:35;99139.25;;;18.42;57.57
64294;BME280;50636;45.596;5.258;2022-10-30T00:18:01;99140.72;;;18.04;58.63
64294;BME280;50636;45.596;5.258;2022-10-30T00:20:27;99137.31;;;17.92;59.14
64294;BME280;50636;45.596;5.258;2022-10-30T00:22:53;99141.78;;;18.03;59.18
64294;BME280;50636;45.596;5.258;2022-10-30T00:25:19;99132.75;;;18.04;58.96
64294;BME280;50636;45.596;5.258;2022-10-30T00:27:44;99122.63;;;18.01;59.18
64294;BME280;50636;45.596;5.258;2022-10-30T00:30:10;99122.84;;;18.00;59.24
64294;BME280;50636;45.596;5.258;2022-10-30T00:32:36;99122.28;;;17.98;59.34
64294;BME280;50636;45.596;5.258;2022-10-30T00:35:02;99117.25;;;17.84;61.31
64294;BME280;50636;45.596;5.258;2022-10-30T00:37:28;99119.34;;;17.70;60.89
64294;BME280;50636;45.596;5.258;2022-10-30T00:39:53;99119.44;;;17.75;60.65
64294;BME280;50636;45.596;5.258;2022-10-30T00:42:19;99117.25;;;17.84;61.30
64294;BME280;50636;45.596;5.258;2022-10-30T00:44:47;99114.78;;;17.83;60.83
64294;BME280;50636;45.596;5.258;2022-10-30T00:47:31;99116.63;;;17.94;60.79
64294;BME280;50636;45.596;5.258;2022-10-30T00:50:05;99120.16;;;18.11;60.45
64294;BME280;50636;45.596;5.258;2022-10-30T00:52:57;99109.94;;;18.20;59.61
64294;BME280;50636;45.596;5.258;2022-10-30T00:55:29;99111.78;;;18.20;59.42
64294;BME280;50636;45.596;5.258;2022-10-30T00:57:57;99105.75;;;18.24;59.30
64294;BME280;50636;45.596;5.258;2022-10-30T01:00:26;99098.09;;;18.28;58.81
64294;BME280;50636;45.596;5.258;2022-10-30T01:02:54;99091.59;;;18.35;59.02
64294;BME280;50636;45.596;5.258;2022-10-30T01:05:23;99091.44;;;18.42;58.31
64294;BME280;50636;45.596;5.258;2022-10-30T01:07:50;99084.34;;;18.48;58.50
64294;BME280;50636;45.596;5.258;2022-10-30T01:10:16;99077.56;;;18.57;58.11
64294;BME280;50636;45.596;5.258;2022-10-30T01:12:44;99077.41;;;18.64;58.21
64294;BME280;50636;45.596;5.258;2022-10-30T01:15:11;99075.78;;;18.63;57.95
64294;BME280;50636;45.596;5.258;2022-10-30T01:20:38;99072.31;;;18.79;58.02
64294;BME280;50636;45.596;5.258;2022-10-30T01:29:32;99073.09;;;18.96;57.23
64294;BME280;50636;45.596;5.258;2022-10-30T01:32:19;99063.91;;;19.04;56.66
64294;BME280;50636;45.596;5.258;2022-10-30T01:34:58;99073.19;;;19.02;56.68
64294;BME280;50636;45.596;5.258;2022-10-30T01:40:14;99080.97;;;18.69;57.79
64294;BME280;50636;45.596;5.258;2022-10-30T01:42:47;99088.19;;;18.74;57.98
64294;BME280;50636;45.596;5.258;2022-10-30T01:45:49;99095.03;;;18.70;58.03
64294;BME280;50636;45.596;5.258;2022-10-30T01:48:52;99094.34;;;18.58;58.24
64294;BME280;50636;45.596;5.258;2022-10-30T01:51:42;99088.94;;;18.52;58.10
64294;BME280;50636;45.596;5.258;2022-10-30T01:54:32;99091.94;;;18.39;58.84
64294;BME280;50636;45.596;5.258;2022-10-30T01:57:33;99088.19;;;18.40;59.16
64294;BME280;50636;45.596;5.258;2022-10-30T02:00:07;99083.75;;;18.29;59.32
64294;BME280;50636;45.596;5.258;2022-10-30T02:02:33;99073.47;;;18.32;59.50
64294;BME280;50636;45.596;5.258;2022-10-30T02:04:59;99064.53;;;18.39;59.82
64294;BME280;50636;45.596;5.258;2022-10-30T02:07:25;99068.31;;;18.43;59.67
64294;BME280;50636;45.596;5.258;2022-10-30T02:09:52;99058.75;;;18.42;59.92
64294;BME280;50636;45.596;5.258;2022-10-30T02:12:20;99059.22;;;18.55;59.40
64294;BME280;50636;45.596;5.258;2022-10-30T02:14:50;99053.53;;;18.69;58.92
64294;BME280;50636;45.596;5.258;2022-10-30T02:17:17;99062.72;;;18.61;58.46
64294;BME280;50636;45.596;5.258;2022-10-30T02:19:43;99061.94;;;18.61;59.07
64294;BME280;50636;45.596;5.258;2022-10-30T02:22:09;99062.72;;;18.61;58.99
64294;BME280;50636;45.596;5.258;2022-10-30T02:24:35;99055.50;;;18.73;57.85
64294;BME280;50636;45.596;5.258;2022-10-30T02:27:00;99064.34;;;18.62;57.64
64294;BME280;50636;45.596;5.258;2022-10-30T02:29:26;99052.44;;;18.48;57.86
64294;BME280;50636;45.596;5.258;2022-10-30T02:31:52;99049.97;;;18.41;57.91
64294;BME280;50636;45.596;5.258;2022-10-30T02:34:18;99046.81;;;18.44;57.68
64294;BME280;50636;45.596;5.258;2022-10-30T02:36:43;99040.03;;;18.53;56.81
64294;BME280;50636;45.596;5.258;2022-10-30T02:39:09;99050.69;;;18.53;56.42
64294;BME280;50636;45.596;5.258;2022-10-30T02:41:35;99046.91;;;18.49;56.45
64294;BME280;50636;45.596;5.258;2022-10-30T02:44:00;99044.94;;;18.45;56.63
64294;BME280;50636;45.596;5.258;2022-10-30T02:46:26;99051.41;;;18.32;56.84
64294;BME280;50636;45.596;5.258;2022-10-30T02:48:52;99051.25;;;18.22;57.11
64294;BME280;50636;45.596;5.258;2022-10-30T02:51:17;99046.00;;;18.10;56.73
64294;BME280;50636;45.596;5.258;2022-10-30T02:53:43;99054.53;;;17.95;57.46
64294;BME280;50636;45.596;5.258;2022-10-30T02:56:13;99054.69;;;17.76;57.61
64294;BME280;50636;45.596;5.258;2022-10-30T02:58:39;99052.97;;;17.70;58.12
64294;BME280;50636;45.596;5.258;2022-10-30T03:01:10;99047.38;;;17.67;58.27
64294;BME280;50636;45.596;5.258;2022-10-30T03:03:36;99049.44;;;17.65;57.93
64294;BME280;50636;45.596;5.258;2022-10-30T03:06:07;99053.03;;;17.58;57.60
64294;BME280;50636;45.596;5.258;2022-10-30T03:08:33;99045.06;;;17.58;57.39
64294;BME280;50636;45.596;5.258;2022-10-30T03:11:07;99051.19;;;17.59;57.38
64294;BME280;50636;45.596;5.258;2022-10-30T03:13:34;99044.16;;;17.65;56.68
64294;BME280;50636;45.596;5.258;2022-10-30T03:16:03;99046.41;;;17.73;56.53
64294;BME280;50636;45.596;5.258;2022-10-30T03:18:29;99048.69;;;17.81;56.72
64294;BME280;50636;45.596;5.258;2022-10-30T03:21:03;99046.97;;;17.87;56.78
64294;BME280;50636;45.596;5.258;2022-10-30T03:23:29;99046.31;;;17.96;55.57
64294;BME280;50636;45.596;5.258;2022-10-30T03:25:56;99044.53;;;18.02;55.43
64294;BME280;50636;45.596;5.258;2022-10-30T03:28:25;99049.38;;;18.05;54.91
64294;BME280;50636;45.596;5.258;2022-10-30T03:30:57;99041.81;;;18.14;54.68
64294;BME280;50636;45.596;5.258;2022-10-30T03:33:23;99056.72;;;18.15;54.41
64294;BME280;50636;45.596;5.258;2022-10-30T03:35:49;99046.22;;;18.08;54.82
64294;BME280;50636;45.596;5.258;2022-10-30T03:38:15;99048.50;;;18.00;54.97
64294;BME280;50636;45.596;5.258;2022-10-30T03:40:41;99051.88;;;17.95;55.62
64294;BME280;50636;45.596;5.258;2022-10-30T03:43:07;99055.22;;;17.90;55.45
64294;BME280;50636;45.596;5.258;2022-10-30T03:45:34;99043.81;;;17.90;55.83
64294;BME280;50636;45.596;5.258;2022-10-30T03:48:00;99054.09;;;17.86;55.15
64294;BME280;50636;45.596;5.258;2022-10-30T03:50:27;99056.50;;;17.88;55.21
64294;BME280;50636;45.596;5.258;2022-10-30T03:52:56;99051.03;;;17.94;54.77
64294;BME280;50636;45.596;5.258;2022-10-30T03:55:22;99053.47;;;17.96;54.93
64294;BME280;50636;45.596;5.258;2022-10-30T03:57:48;99060.31;;;17.92;54.75
64294;BME280;50636;45.596;5.258;2022-10-30T04:00:15;99063.69;;;17.87;54.97
64294;BME280;50636;45.596;5.258;2022-10-30T04:02:50;99061.38;;;17.91;54.48
64294;BME280;50636;45.596;5.258;2022-10-30T04:05:18;99066.91;;;17.89;54.33
64294;BME280;50636;45.596;5.258;2022-10-30T04:07:44;99071.25;;;17.95;54.49
64294;BME280;50636;45.596;5.258;2022-10-30T04:10:10;99074.16;;;17.94;54.33
64294;BME280;50636;45.596;5.258;2022-10-30T04:12:37;99074.53;;;17.86;54.43
64294;BME280;50636;45.596;5.258;2022-10-30T04:15:04;99070.84;;;17.87;54.42
64294;BME280;50636;45.596;5.258;2022-10-30T04:17:30;99071.66;;;17.87;54.81
64294;BME280;50636;45.596;5.258;2022-10-30T04:19:56;99067.94;;;17.88;55.04
64294;BME280;50636;45.596;5.258;2022-10-30T04:22:22;99074.94;;;17.94;55.02
64294;BME280;50636;45.596;5.258;2022-10-30T04:24:48;99074.72;;;17.96;55.17
64294;BME280;50636;45.596;5.258;2022-10-30T04:27:14;99077.94;;;17.98;55.66
64294;BME280;50636;45.596;5.258;2022-10-30T04:29:40;99078.81;;;17.87;56.41
64294;BME280;50636;45.596;5.258;2022-10-30T04:32:08;99082.09;;;17.65;56.73
64294;BME280;50636;45.596;5.258;2022-10-30T04:34:35;99085.69;;;17.59;57.03
64294;BME280;50636;45.596;5.258;2022-10-30T04:37:01;99079.44;;;17.65;57.20
64294;BME280;50636;45.596;5.258;2022-10-30T04:39:26;99076.06;;;17.70;57.39
64294;BME280;50636;45.596;5.258;2022-10-30T04:41:52;99075.50;;;17.68;57.61
64294;BME280;50636;45.596;5.258;2022-10-30T04:44:18;99071.91;;;17.74;57.66
64294;BME280;50636;45.596;5.258;2022-10-30T04:46:43;99074.88;;;17.77;57.66
64294;BME280;50636;45.596;5.258;2022-10-30T04:49:09;99074.41;;;17.81;57.47
64294;BME280;50636;45.596;5.258;2022-10-30T04:51:34;99061.94;;;17.81;57.50
64294;BME280;50636;45.596;5.258;2022-10-30T04:54:00;99067.38;;;17.86;57.69
64294;BME280;50636;45.596;5.258;2022-10-30T04:56:26;99062.28;;;17.85;57.60
64294;BME280;50636;45.596;5.258;2022-10-30T04:58:51;99062.41;;;17.78;57.52
64294;BME280;50636;45.596;5.258;2022-10-30T05:01:18;99058.72;;;17.79;57.57
64294;BME280;50636;45.596;5.258;2022-10-30T05:03:44;99055.00;;;17.80;57.73
64294;BME280;50636;45.596;5.258;2022-10-30T05:06:22;99055.94;;;17.86;57.82
64294;BME280;50636;45.596;5.258;2022-10-30T05:08:49;99054.31;;;17.85;57.94
64294;BME280;50636;45.596;5.258;2022-10-30T05:11:15;99052.84;;;17.89;57.49
64294;BME280;50636;45.596;5.258;2022-10-30T05:13:42;99043.06;;;17.94;56.85
64294;BME280;50636;45.596;5.258;2022-10-30T05:16:09;99049.69;;;17.92;56.96
64294;BME280;50636;45.596;5.258;2022-10-30T05:18:34;99041.38;;;17.88;57.14
64294;BME280;50636;45.596;5.258;2022-10-30T05:21:00;99044.88;;;17.89;56.81
64294;BME280;50636;45.596;5.258;2022-10-30T05:23:26;99046.03;;;17.81;57.06
64294;BME280;50636;45.596;5.258;2022-10-30T05:25:51;99044.16;;;17.82;56.89
64294;BME280;50636;45.596;5.258;2022-10-30T05:28:17;99051.22;;;17.76;57.52
64294;BME280;50636;45.596;5.258;2022-10-30T05:30:42;99042.47;;;17.75;56.85
64294;BME280;50636;45.596;5.258;2022-10-30T05:33:10;99037.72;;;17.77;57.51
64294;BME280;50636;45.596;5.258;2022-10-30T05:35:36;99038.13;;;17.69;57.53
64294;BME280;50636;45.596;5.258;2022-10-30T05:38:04;99030.31;;;17.63;57.68
64294;BME280;50636;45.596;5.258;2022-10-30T05:40:32;99035.63;;;17.63;57.82
64294;BME280;50636;45.596;5.258;2022-10-30T05:42:58;99034.88;;;17.67;58.42
64294;BME280;50636;45.596;5.258;2022-10-30T05:45:23;99038.19;;;17.74;57.67
64294;BME280;50636;45.596;5.258;2022-10-30T05:47:59;99030.59;;;17.66;57.77
64294;BME280;50636;45.596;5.258;2022-10-30T05:50:26;99028.22;;;17.65;58.19
64294;BME280;50636;45.596;5.258;2022-10-30T05:52:56;99035.63;;;17.63;58.13
64294;BME280;50636;45.596;5.258;2022-10-30T05:55:22;99041.53;;;17.53;58.32
64294;BME280;50636;45.596;5.258;2022-10-30T05:57:47;99037.97;;;17.47;58.59
64294;BME280;50636;45.596;5.258;2022-10-30T06:00:13;99034.75;;;17.45;58.55
64294;BME280;50636;45.596;5.258;2022-10-30T06:02:39;99034.19;;;17.43;58.76
64294;BME280;50636;45.596;5.258;2022-10-30T06:05:05;99038.56;;;17.37;59.68
64294;BME280;50636;45.596;5.258;2022-10-30T06:07:31;99028.94;;;17.48;58.45
64294;BME280;50636;45.596;5.258;2022-10-30T06:09:57;99031.09;;;17.63;58.08
64294;BME280;50636;45.596;5.258;2022-10-30T06:12:22;99042.81;;;17.79;57.34
64294;BME280;50636;45.596;5.258;2022-10-30T06:14:48;99038.41;;;17.85;56.76
64294;BME280;50636;45.596;5.258;2022-10-30T06:17:13;99044.47;;;17.97;56.97
64294;BME280;50636;45.596;5.258;2022-10-30T06:19:39;99045.44;;;17.91;56.35
64294;BME280;50636;45.596;5.258;2022-10-30T06:22:05;99045.50;;;17.96;56.44
64294;BME280;50636;45.596;5.258;2022-10-30T06:24:30;99048.66;;;17.93;56.19
64294;BME280;50636;45.596;5.258;2022-10-30T06:26:56;99047.75;;;17.87;56.47
64294;BME280;50636;45.596;5.258;2022-10-30T06:29:21;99044.38;;;17.92;56.29
64294;BME280;50636;45.596;5.258;2022-10-30T06:31:47;99057.41;;;17.93;56.09
64294;BME280;50636;45.596;5.258;2022-10-30T06:34:13;99052.84;;;17.89;56.25
64294;BME280;50636;45.596;5.258;2022-10-30T06:36:38;99044.72;;;17.95;56.35
64294;BME280;50636;45.596;5.258;2022-10-30T06:39:04;99054.44;;;18.07;55.68
64294;BME280;50636;45.596;5.258;2022-10-30T06:41:29;99054.06;;;18.15;55.79
64294;BME280;50636;45.596;5.258;2022-10-30T06:43:55;99054.06;;;18.32;55.50
64294;BME280;50636;45.596;5.258;2022-10-30T06:46:21;99048.50;;;18.50;55.50
64294;BME280;50636;45.596;5.258;2022-10-30T06:48:46;99050.59;;;18.48;55.29
64294;BME280;50636;45.596;5.258;2022-10-30T06:51:14;99052.50;;;18.53;54.60
64294;BME280;50636;45.596;5.258;2022-10-30T06:53:40;99056.28;;;18.57;55.12
64294;BME280;50636;45.596;5.258;2022-10-30T06:56:08;99052.38;;;18.60;54.42
64294;BME280;50636;45.596;5.258;2022-10-30T06:58:34;99058.66;;;18.53;54.17
64294;BME280;50636;45.596;5.258;2022-10-30T07:01:06;99056.78;;;18.54;54.27
64294;BME280;50636;45.596;5.258;2022-10-30T07:03:32;99057.13;;;18.58;54.05
64294;BME280;50636;45.596;5.258;2022-10-30T07:05:58;99063.63;;;18.67;53.86
64294;BME280;50636;45.596;5.258;2022-10-30T07:08:24;99057.31;;;18.73;53.20
64294;BME280;50636;45.596;5.258;2022-10-30T07:10:50;99056.03;;;18.75;52.65
64294;BME280;50636;45.596;5.258;2022-10-30T07:13:15;99059.59;;;18.81;52.67
64294;BME280;50636;45.596;5.258;2022-10-30T07:15:41;99058.88;;;18.86;52.75
64294;BME280;50636;45.596;5.258;2022-10-30T07:18:08;99058.88;;;18.86;52.36
64294;BME280;50636;45.596;5.258;2022-10-30T07:20:35;99073.63;;;18.93;52.30
64294;BME280;50636;45.596;5.258;2022-10-30T07:23:01;99072.88;;;18.98;52.30
64294;BME280;50636;45.596;5.258;2022-10-30T07:25:28;99077.88;;;19.16;51.94
64294;BME280;50636;45.596;5.258;2022-10-30T07:27:55;99076.22;;;19.54;50.71
64294;BME280;50636;45.596;5.258;2022-10-30T07:30:23;99079.69;;;20.04;49.69
64294;BME280;50636;45.596;5.258;2022-10-30T07:33:00;99074.63;;;20.40;48.68
64294;BME280;50636;45.596;5.258;2022-10-30T07:35:26;99080.25;;;20.39;48.32
64294;BME280;50636;45.596;5.258;2022-10-30T07:37:53;99075.28;;;20.52;47.91
64294;BME280;50636;45.596;5.258;2022-10-30T07:40:19;99089.31;;;20.75;47.04
64294;BME280;50636;45.596;5.258;2022-10-30T07:42:45;99084.41;;;20.99;46.26
64294;BME280;50636;45.596;5.258;2022-10-30T07:45:10;99075.91;;;21.07;45.97
64294;BME280;50636;45.596;5.258;2022-10-30T07:47:42;99080.22;;;21.19;45.63
64294;BME280;50636;45.596;5.258;2022-10-30T07:50:09;99077.91;;;21.38;45.46
64294;BME280;50636;45.596;5.258;2022-10-30T07:52:35;99087.63;;;21.64;44.91
64294;BME280;50636;45.596;5.258;2022-10-30T07:55:02;99084.50;;;21.98;44.10
64294;BME280;50636;45.596;5.258;2022-10-30T07:57:33;99082.91;;;22.07;43.43
64294;BME280;50636;45.596;5.258;2022-10-30T07:59:59;99091.72;;;22.08;44.03
64294;BME280;50636;45.596;5.258;2022-10-30T08:02:25;99096.56;;;22.26;43.82
64294;BME280;50636;45.596;5.258;2022-10-30T08:04:50;99089.06;;;22.64;42.09
64294;BME280;50636;45.596;5.258;2022-10-30T08:07:16;99088.72;;;22.91;42.02
64294;BME280;50636;45.596;5.258;2022-10-30T08:09:42;99121.84;;;23.37;41.27
64294;BME280;50636;45.596;5.258;2022-10-30T08:12:07;99101.25;;;23.87;39.39
64294;BME280;50636;45.596;5.258;2022-10-30T08:14:33;99100.84;;;24.09;38.97
64294;BME280;50636;45.596;5.258;2022-10-30T08:16:59;99101.84;;;24.52;38.01
64294;BME280;50636;45.596;5.258;2022-10-30T08:19:24;99095.78;;;24.37;38.50
64294;BME280;50636;45.596;5.258;2022-10-30T08:21:50;99105.22;;;24.34;38.57
64294;BME280;50636;45.596;5.258;2022-10-30T08:24:16;99095.44;;;24.54;37.93
64294;BME280;50636;45.596;5.258;2022-10-30T08:26:41;99097.81;;;24.84;37.63
64294;BME280;50636;45.596;5.258;2022-10-30T08:29:07;99092.19;;;24.81;37.72
64294;BME280;50636;45.596;5.258;2022-10-30T08:31:33;99097.19;;;24.92;37.61
64294;BME280;50636;45.596;5.258;2022-10-30T08:33:58;99098.41;;;25.05;37.27
64294;BME280;50636;45.596;5.258;2022-10-30T08:36:24;99098.28;;;24.91;37.80
64294;BME280;50636;45.596;5.258;2022-10-30T08:38:50;99101.59;;;25.07;36.93
64294;BME280;50636;45.596;5.258;2022-10-30T08:41:15;99100.75;;;25.12;37.32
64294;BME280;50636;45.596;5.258;2022-10-30T08:43:41;99095.97;;;25.52;36.37
64294;BME280;50636;45.596;5.258;2022-10-30T08:46:06;99111.22;;;25.38;36.61
64294;BME280;50636;45.596;5.258;2022-10-30T08:48:32;99097.00;;;25.56;36.59
64294;BME280;50636;45.596;5.258;2022-10-30T08:50:58;99100.13;;;25.63;36.22
64294;BME280;50636;45.596;5.258;2022-10-30T08:53:25;99112.16;;;25.90;35.70
64294;BME280;50636;45.596;5.258;2022-10-30T08:55:51;99106.19;;;26.12;35.67
64294;BME280;50636;45.596;5.258;2022-10-30T08:58:17;99100.81;;;26.45;35.47
64294;BME280;50636;45.596;5.258;2022-10-30T09:00:42;99102.72;;;27.05;33.73
64294;BME280;50636;45.596;5.258;2022-10-30T09:03:08;99101.13;;;27.04;33.27
64294;BME280;50636;45.596;5.258;2022-10-30T09:05:36;99101.34;;;27.35;32.28
64294;BME280;50636;45.596;5.258;2022-10-30T09:08:01;99098.16;;;27.47;32.26
64294;BME280;50636;45.596;5.258;2022-10-30T09:10:28;99100.50;;;27.62;31.75
64294;BME280;50636;45.596;5.258;2022-10-30T09:12:57;99100.91;;;27.56;31.52
64294;BME280;50636;45.596;5.258;2022-10-30T09:15:24;99100.47;;;27.76;32.58
64294;BME280;50636;45.596;5.258;2022-10-30T09:17:58;99099.00;;;28.06;31.28
64294;BME280;50636;45.596;5.258;2022-10-30T09:20:24;99107.97;;;28.16;30.78
64294;BME280;50636;45.596;5.258;2022-10-30T09:22:50;99102.91;;;28.00;30.77
64294;BME280;50636;45.596;5.258;2022-10-30T09:25:16;99105.50;;;28.05;30.77
64294;BME280;50636;45.596;5.258;2022-10-30T09:27:43;99101.75;;;28.38;30.75
64294;BME280;50636;45.596;5.258;2022-10-30T09:30:10;99099.09;;;28.69;29.95
64294;BME280;50636;45.596;5.258;2022-10-30T09:32:35;99096.88;;;28.71;29.91
64294;BME280;50636;45.596;5.258;2022-10-30T09:35:01;99110.28;;;28.31;31.17
64294;BME280;50636;45.596;5.258;2022-10-30T09:37:27;99101.28;;;28.36;30.79
64294;BME280;50636;45.596;5.258;2022-10-30T09:39:52;99097.41;;;28.28;30.16
64294;BME280;50636;45.596;5.258;2022-10-30T09:47:52;99110.66;;;28.16;30.20
64294;BME280;50636;45.596;5.258;2022-10-30T09:50:29;99108.81;;;28.47;29.09
64294;BME280;50636;45.596;5.258;2022-10-30T09:58:35;99110.38;;;28.71;28.99
64294;BME280;50636;45.596;5.258;2022-10-30T10:04:00;99107.47;;;28.59;28.58
64294;BME280;50636;45.596;5.258;2022-10-30T10:06:30;99113.78;;;28.54;29.03
64294;BME280;50636;45.596;5.258;2022-10-30T10:09:13;99110.00;;;28.95;28.82
64294;BME280;50636;45.596;5.258;2022-10-30T10:11:46;99100.09;;;29.13;27.63
64294;BME280;50636;45.596;5.258;2022-10-30T10:14:23;99113.91;;;29.12;28.36
64294;BME280;50636;45.596;5.258;2022-10-30T10:16:51;99116.44;;;29.08;28.39
64294;BME280;50636;45.596;5.258;2022-10-30T10:21:56;99117.56;;;28.76;27.84
64294;BME280;50636;45.596;5.258;2022-10-30T10:24:26;99121.09;;;28.85;28.21
64294;BME280;50636;45.596;5.258;2022-10-30T10:27:09;99129.25;;;29.34;27.50
64294;BME280;50636;45.596;5.258;2022-10-30T10:30:03;99117.22;;;29.08;27.21
64294;BME280;50636;45.596;5.258;2022-10-30T10:41:24;99122.66;;;27.73;28.53
64294;BME280;50636;45.596;5.258;2022-10-30T10:50:28;99111.75;;;28.15;28.77
64294;BME280;50636;45.596;5.258;2022-10-30T10:52:59;99104.88;;;28.31;27.97
64294;BME280;50636;45.596;5.258;2022-10-30T10:55:28;99102.75;;;28.19;28.21
64294;BME280;50636;45.596;5.258;2022-10-30T10:58:02;99112.06;;;28.36;28.79
64294;BME280;50636;45.596;5.258;2022-10-30T11:00:31;99111.13;;;28.63;28.20
64294;BME280;50636;45.596;5.258;2022-10-30T11:08:32;99095.06;;;28.89;28.13
64294;BME280;50636;45.596;5.258;2022-10-30T11:11:02;99105.38;;;29.18;28.00
64294;BME280;50636;45.596;5.258;2022-10-30T11:13:30;99102.25;;;29.51;27.15
64294;BME280;50636;45.596;5.258;2022-10-30T11:16:08;99094.31;;;29.63;27.26
64294;BME280;50636;45.596;5.258;2022-10-30T11:18:40;99097.69;;;29.95;26.85
64294;BME280;50636;45.596;5.258;2022-10-30T11:21:09;99087.19;;;29.85;26.69
64294;BME280;50636;45.596;5.258;2022-10-30T11:23:44;99096.81;;;29.34;27.47
64294;BME280;50636;45.596;5.258;2022-10-30T11:29:11;99088.09;;;29.63;27.69
64294;BME280;50636;45.596;5.258;2022-10-30T11:31:40;99082.22;;;29.52;27.88
64294;BME280;50636;45.596;5.258;2022-10-30T11:36:51;99080.66;;;29.86;27.78
64294;BME280;50636;45.596;5.258;2022-10-30T11:39:20;99080.19;;;29.93;27.39
64294;BME280;50636;45.596;5.258;2022-10-30T11:42:05;99083.84;;;29.97;27.68
64294;BME280;50636;45.596;5.258;2022-10-30T11:44:44;99076.53;;;29.97;27.45
64294;BME280;50636;45.596;5.258;2022-10-30T11:47:11;99068.88;;;30.17;27.44
64294;BME280;50636;45.596;5.258;2022-10-30T11:49:41;99073.31;;;30.30;27.27
64294;BME280;50636;45.596;5.258;2022-10-30T11:52:10;99068.06;;;30.34;27.72
64294;BME280;50636;45.596;5.258;2022-10-30T11:54:39;99058.47;;;30.83;26.83
64294;BME280;50636;45.596;5.258;2022-10-30T12:00:03;99058.06;;;31.32;27.45
64294;BME280;50636;45.596;5.258;2022-10-30T12:02:39;99054.25;;;31.96;26.49
64294;BME280;50636;45.596;5.258;2022-10-30T12:07:52;99054.78;;;31.69;25.85
64294;BME280;50636;45.596;5.258;2022-10-30T12:10:25;99046.69;;;31.39;25.32
64294;BME280;50636;45.596;5.258;2022-10-30T12:12:51;99042.97;;;31.01;26.72
64294;BME280;50636;45.596;5.258;2022-10-30T12:15:26;99048.75;;;30.91;26.74
64294;BME280;50636;45.596;5.258;2022-10-30T12:18:03;99047.47;;;30.89;27.33
64294;BME280;50636;45.596;5.258;2022-10-30T12:20:31;99042.28;;;31.04;27.11
64294;BME280;50636;45.596;5.258;2022-10-30T12:22:58;99038.06;;;31.45;26.92
64294;BME280;50636;45.596;5.258;2022-10-30T12:25:33;99038.97;;;31.71;26.97
64294;BME280;50636;45.596;5.258;2022-10-30T12:28:12;99027.41;;;31.61;26.77
64294;BME280;50636;45.596;5.258;2022-10-30T12:33:28;99043.13;;;30.96;28.13
64294;BME280;50636;45.596;5.258;2022-10-30T12:35:58;99036.59;;;30.97;27.79
64294;BME280;50636;45.596;5.258;2022-10-30T12:38:28;99027.63;;;31.26;27.93
64294;BME280;50636;45.596;5.258;2022-10-30T12:41:09;99024.84;;;31.14;27.15
64294;BME280;50636;45.596;5.258;2022-10-30T12:43:39;99027.97;;;30.65;27.31
64294;BME280;50636;45.596;5.258;2022-10-30T12:46:14;99025.84;;;30.24;27.79
64294;BME280;50636;45.596;5.258;2022-10-30T12:48:54;99028.63;;;29.89;27.95
64294;BME280;50636;45.596;5.258;2022-10-30T12:51:50;99018.41;;;29.60;28.44
64294;BME280;50636;45.596;5.258;2022-10-30T12:57:19;99016.00;;;29.15;29.44
64294;BME280;50636;45.596;5.258;2022-10-30T13:02:44;99006.66;;;28.72;29.54
64294;BME280;50636;45.596;5.258;2022-10-30T13:10:50;99013.03;;;27.55;30.29
64294;BME280;50636;45.596;5.258;2022-10-30T13:13:24;99009.31;;;27.28;30.97
64294;BME280;50636;45.596;5.258;2022-10-30T13:15:57;99020.59;;;27.16;31.52
64294;BME280;50636;45.596;5.258;2022-10-30T13:18:25;99004.13;;;27.18;31.93
64294;BME280;50636;45.596;5.258;2022-10-30T13:21:19;99000.50;;;27.22;32.12
64294;BME280;50636;45.596;5.258;2022-10-30T13:23:56;99003.75;;;27.61;31.59
64294;BME280;50636;45.596;5.258;2022-10-30T13:26:32;99007.03;;;27.58;31.74
64294;BME280;50636;45.596;5.258;2022-10-30T13:29:12;98999.66;;;27.27;31.40
64294;BME280;50636;45.596;5.258;2022-10-30T13:37:12;98993.38;;;26.90;32.12
64294;BME280;50636;45.596;5.258;2022-10-30T13:39:46;98998.59;;;26.59;33.37
64294;BME280;50636;45.596;5.258;2022-10-30T13:45:18;98999.22;;;25.90;34.53
64294;BME280;50636;45.596;5.258;2022-10-30T13:48:10;98999.50;;;25.69;34.70
64294;BME280;50636;45.596;5.258;2022-10-30T13:53:28;98987.81;;;25.41;35.65
64294;BME280;50636;45.596;5.258;2022-10-30T13:55:56;98987.75;;;25.27;35.71
64294;BME280;50636;45.596;5.258;2022-10-30T13:58:43;98982.28;;;25.14;35.96
64294;BME280;50636;45.596;5.258;2022-10-30T14:01:23;98978.06;;;25.07;36.69
64294;BME280;50636;45.596;5.258;2022-10-30T14:04:18;98981.91;;;25.01;37.21
64294;BME280;50636;45.596;5.258;2022-10-30T14:16:04;98981.84;;;24.58;38.48
64294;BME280;50636;45.596;5.258;2022-10-30T14:28:34;98962.63;;;24.51;38.81
64294;BME280;50636;45.596;5.258;2022-10-30T14:33:44;98956.22;;;24.47;39.02
64294;BME280;50636;45.596;5.258;2022-10-30T14:36:22;98958.13;;;24.41;38.90
64294;BME280;50636;45.596;5.258;2022-10-30T14:39:00;98947.41;;;24.41;39.51
64294;BME280;50636;45.596;5.258;2022-10-30T14:41:33;98958.22;;;24.60;38.65
64294;BME280;50636;45.596;5.258;2022-10-30T14:44:09;98949.19;;;24.75;37.15
64294;BME280;50636;45.596;5.258;2022-10-30T14:50:02;98965.53;;;24.55;37.47
64294;BME280;50636;45.596;5.258;2022-10-30T14:53:18;98952.03;;;24.36;38.03
64294;BME280;50636;45.596;5.258;2022-10-30T14:58:28;98965.59;;;24.44;38.02
64294;BME280;50636;45.596;5.258;2022-10-30T15:09:32;98963.41;;;24.22;39.16
64294;BME280;50636;45.596;5.258;2022-10-30T15:14:40;98950.38;;;24.10;39.67
64294;BME280;50636;45.596;5.258;2022-10-30T15:17:31;98962.69;;;24.17;39.13